sensor_id;sensor_type;location;lat;lon;timestamp;P1;durP1;ratioP1;P2;durP2;ratioP2
9449;SDS011;4763;48.370;10.874;2022-08-25T00:01:34;6.63;;;2.90;;
9449;SDS011;4763;48.370;10.874;2022-08-25T00:04:03;4.97;;;3.60;;
9449;SDS011;4763;48.370;10.874;2022-08-25T00:06:32;5.20;;;3.93;;
9449;SDS011;4763;48.370;10.874;2022-08-25T00:09:00;5.43;;;3.67;;
9449;SDS011;4763;48.370;10.874;2022-08-25T00:11:28;5.33;;;3.33;;
9449;SDS011;4763;48.370;10.874;2022-08-25T00:13:58;5.07;;;4.00;;
9449;SDS011;4763;48.370;10.874;2022-08-25T00:16:27;5.93;;;4.00;;
9449;SDS011;4763;48.370;10.874;2022-08-25T00:18:56;5.73;;;3.70;;
9449;SDS011;4763;48.370;10.874;2022-08-25T00:21:25;6.13;;;3.50;;
9449;SDS011;4763;48.370;10.874;2022-08-25T00:23:52;5.40;;;3.20;;
9449;SDS011;4763;48.370;10.874;2022-08-25T00:26:22;3.93;;;3.37;;
9449;SDS011;4763;48.370;10.874;2022-08-25T00:28:50;5.67;;;3.77;;
9449;SDS011;4763;48.370;10.874;2022-08-25T00:31:18;4.77;;;3.77;;
9449;SDS011;4763;48.370;10.874;2022-08-25T00:33:48;4.53;;;3.63;;
9449;SDS011;4763;48.370;10.874;2022-08-25T00:36:16;8.70;;;3.57;;
9449;SDS011;4763;48.370;10.874;2022-08-25T00:38:45;7.03;;;3.37;;
9449;SDS011;4763;48.370;10.874;2022-08-25T00:41:13;5.00;;;3.43;;
9449;SDS011;4763;48.370;10.874;2022-08-25T00:43:46;6.53;;;4.10;;
9449;SDS011;4763;48.370;10.874;2022-08-25T00:46:16;5.70;;;4.30;;
9449;SDS011;4763;48.370;10.874;2022-08-25T00:48:44;4.80;;;3.83;;
9449;SDS011;4763;48.370;10.874;2022-08-25T00:51:16;4.17;;;3.47;;
9449;SDS011;4763;48.370;10.874;2022-08-25T00:53:48;5.23;;;3.40;;
9449;SDS011;4763;48.370;10.874;2022-08-25T00:56:15;5.77;;;4.37;;
9449;SDS011;4763;48.370;10.874;2022-08-25T00:58:44;4.67;;;3.40;;
9449;SDS011;4763;48.370;10.874;2022-08-25T01:01:11;3.63;;;3.20;;
9449;SDS011;4763;48.370;10.874;2022-08-25T01:03:38;5.23;;;4.27;;
9449;SDS011;4763;48.370;10.874;2022-08-25T01:06:05;5.20;;;4.20;;
9449;SDS011;4763;48.370;10.874;2022-08-25T01:08:34;5.60;;;3.87;;
9449;SDS011;4763;48.370;10.874;2022-08-25T01:11:02;4.20;;;3.60;;
9449;SDS011;4763;48.370;10.874;2022-08-25T01:13:33;5.10;;;3.83;;
9449;SDS011;4763;48.370;10.874;2022-08-25T01:16:04;6.60;;;4.03;;
9449;SDS011;4763;48.370;10.874;2022-08-25T01:18:41;5.80;;;3.77;;
9449;SDS011;4763;48.370;10.874;2022-08-25T01:21:11;5.43;;;4.07;;
9449;SDS011;4763;48.370;10.874;2022-08-25T01:23:38;5.43;;;4.17;;
9449;SDS011;4763;48.370;10.874;2022-08-25T01:26:07;7.07;;;4.60;;
9449;SDS011;4763;48.370;10.874;2022-08-25T01:28:38;5.33;;;3.60;;
9449;SDS011;4763;48.370;10.874;2022-08-25T01:31:27;5.30;;;3.90;;
9449;SDS011;4763;48.370;10.874;2022-08-25T01:33:55;5.43;;;4.00;;
9449;SDS011;4763;48.370;10.874;2022-08-25T01:36:24;7.27;;;4.90;;
9449;SDS011;4763;48.370;10.874;2022-08-25T01:38:53;5.13;;;4.07;;
9449;SDS011;4763;48.370;10.874;2022-08-25T01:41:21;5.83;;;4.57;;
9449;SDS011;4763;48.370;10.874;2022-08-25T01:43:56;5.53;;;4.20;;
9449;SDS011;4763;48.370;10.874;2022-08-25T01:46:22;8.67;;;4.97;;
9449;SDS011;4763;48.370;10.874;2022-08-25T01:48:49;5.33;;;4.17;;
9449;SDS011;4763;48.370;10.874;2022-08-25T01:51:16;5.13;;;4.10;;
9449;SDS011;4763;48.370;10.874;2022-08-25T01:53:46;6.57;;;4.43;;
9449;SDS011;4763;48.370;10.874;2022-08-25T01:56:15;6.23;;;4.30;;
9449;SDS011;4763;48.370;10.874;2022-08-25T01:58:44;6.83;;;4.50;;
9449;SDS011;4763;48.370;10.874;2022-08-25T02:01:14;6.43;;;4.87;;
9449;SDS011;4763;48.370;10.874;2022-08-25T02:03:43;5.37;;;4.10;;
9449;SDS011;4763;48.370;10.874;2022-08-25T02:06:12;8.93;;;5.40;;
9449;SDS011;4763;48.370;10.874;2022-08-25T02:08:42;6.60;;;4.63;;
9449;SDS011;4763;48.370;10.874;2022-08-25T02:11:10;6.53;;;4.83;;
9449;SDS011;4763;48.370;10.874;2022-08-25T02:13:39;6.10;;;4.60;;
9449;SDS011;4763;48.370;10.874;2022-08-25T02:16:07;7.73;;;4.70;;
9449;SDS011;4763;48.370;10.874;2022-08-25T02:18:35;5.93;;;4.80;;
9449;SDS011;4763;48.370;10.874;2022-08-25T02:21:02;6.63;;;4.63;;
9449;SDS011;4763;48.370;10.874;2022-08-25T02:23:29;6.20;;;4.30;;
9449;SDS011;4763;48.370;10.874;2022-08-25T02:25:56;8.63;;;4.50;;
9449;SDS011;4763;48.370;10.874;2022-08-25T02:28:24;6.03;;;4.47;;
9449;SDS011;4763;48.370;10.874;2022-08-25T02:30:51;5.80;;;4.80;;
9449;SDS011;4763;48.370;10.874;2022-08-25T02:33:18;6.43;;;5.00;;
9449;SDS011;4763;48.370;10.874;2022-08-25T02:35:46;8.87;;;5.20;;
9449;SDS011;4763;48.370;10.874;2022-08-25T02:38:13;9.90;;;4.83;;
9449;SDS011;4763;48.370;10.874;2022-08-25T02:40:39;7.23;;;5.13;;
9449;SDS011;4763;48.370;10.874;2022-08-25T02:43:06;5.93;;;4.83;;
9449;SDS011;4763;48.370;10.874;2022-08-25T02:45:34;9.47;;;4.53;;
9449;SDS011;4763;48.370;10.874;2022-08-25T02:48:02;6.60;;;5.37;;
9449;SDS011;4763;48.370;10.874;2022-08-25T02:50:29;10.17;;;5.90;;
9449;SDS011;4763;48.370;10.874;2022-08-25T02:52:56;9.40;;;5.80;;
9449;SDS011;4763;48.370;10.874;2022-08-25T02:55:23;9.23;;;6.77;;
9449;SDS011;4763;48.370;10.874;2022-08-25T02:57:49;9.37;;;5.80;;
9449;SDS011;4763;48.370;10.874;2022-08-25T03:00:16;7.33;;;5.53;;
9449;SDS011;4763;48.370;10.874;2022-08-25T03:02:45;7.17;;;5.80;;
9449;SDS011;4763;48.370;10.874;2022-08-25T03:05:13;10.10;;;5.17;;
9449;SDS011;4763;48.370;10.874;2022-08-25T03:07:40;5.73;;;5.00;;
9449;SDS011;4763;48.370;10.874;2022-08-25T03:10:08;10.40;;;5.30;;
9449;SDS011;4763;48.370;10.874;2022-08-25T03:12:40;6.93;;;5.30;;
9449;SDS011;4763;48.370;10.874;2022-08-25T03:15:07;8.13;;;5.40;;
9449;SDS011;4763;48.370;10.874;2022-08-25T03:17:35;7.23;;;5.10;;
9449;SDS011;4763;48.370;10.874;2022-08-25T03:20:04;8.07;;;5.23;;
9449;SDS011;4763;48.370;10.874;2022-08-25T03:22:31;7.20;;;5.67;;
9449;SDS011;4763;48.370;10.874;2022-08-25T03:25:00;8.43;;;5.57;;
9449;SDS011;4763;48.370;10.874;2022-08-25T03:27:41;9.00;;;5.47;;
9449;SDS011;4763;48.370;10.874;2022-08-25T03:30:08;8.30;;;6.53;;
9449;SDS011;4763;48.370;10.874;2022-08-25T03:32:36;8.30;;;5.83;;
9449;SDS011;4763;48.370;10.874;2022-08-25T03:35:05;6.53;;;4.87;;
9449;SDS011;4763;48.370;10.874;2022-08-25T03:37:32;7.53;;;5.13;;
9449;SDS011;4763;48.370;10.874;2022-08-25T03:40:00;8.30;;;5.20;;
9449;SDS011;4763;48.370;10.874;2022-08-25T03:42:26;7.73;;;6.17;;
9449;SDS011;4763;48.370;10.874;2022-08-25T03:44:53;8.20;;;5.80;;
9449;SDS011;4763;48.370;10.874;2022-08-25T03:47:20;7.37;;;5.53;;
9449;SDS011;4763;48.370;10.874;2022-08-25T03:49:49;7.80;;;6.03;;
9449;SDS011;4763;48.370;10.874;2022-08-25T03:52:18;7.27;;;5.47;;
9449;SDS011;4763;48.370;10.874;2022-08-25T03:54:44;8.63;;;6.17;;
9449;SDS011;4763;48.370;10.874;2022-08-25T03:57:11;7.77;;;5.80;;
9449;SDS011;4763;48.370;10.874;2022-08-25T03:59:38;8.97;;;6.03;;
9449;SDS011;4763;48.370;10.874;2022-08-25T04:02:05;6.47;;;4.87;;
9449;SDS011;4763;48.370;10.874;2022-08-25T04:04:33;10.60;;;5.50;;
9449;SDS011;4763;48.370;10.874;2022-08-25T04:07:00;7.60;;;5.77;;
9449;SDS011;4763;48.370;10.874;2022-08-25T04:09:28;8.30;;;6.13;;
9449;SDS011;4763;48.370;10.874;2022-08-25T04:11:55;8.40;;;6.43;;
9449;SDS011;4763;48.370;10.874;2022-08-25T04:14:22;8.20;;;6.30;;
9449;SDS011;4763;48.370;10.874;2022-08-25T04:16:49;7.77;;;5.90;;
9449;SDS011;4763;48.370;10.874;2022-08-25T04:19:17;10.80;;;6.77;;
9449;SDS011;4763;48.370;10.874;2022-08-25T04:21:44;9.73;;;5.87;;
9449;SDS011;4763;48.370;10.874;2022-08-25T04:24:11;10.80;;;6.60;;
9449;SDS011;4763;48.370;10.874;2022-08-25T04:26:41;9.37;;;6.37;;
9449;SDS011;4763;48.370;10.874;2022-08-25T04:29:10;9.10;;;5.80;;
9449;SDS011;4763;48.370;10.874;2022-08-25T04:31:39;8.83;;;6.00;;
9449;SDS011;4763;48.370;10.874;2022-08-25T04:34:08;6.43;;;5.10;;
9449;SDS011;4763;48.370;10.874;2022-08-25T04:36:35;8.10;;;5.60;;
9449;SDS011;4763;48.370;10.874;2022-08-25T04:39:02;9.23;;;5.83;;
9449;SDS011;4763;48.370;10.874;2022-08-25T04:41:29;10.80;;;7.10;;
9449;SDS011;4763;48.370;10.874;2022-08-25T04:43:58;18.27;;;5.77;;
9449;SDS011;4763;48.370;10.874;2022-08-25T04:46:27;8.37;;;6.17;;
9449;SDS011;4763;48.370;10.874;2022-08-25T04:48:57;8.47;;;6.30;;
9449;SDS011;4763;48.370;10.874;2022-08-25T04:51:26;7.73;;;5.90;;
9449;SDS011;4763;48.370;10.874;2022-08-25T04:53:57;8.97;;;6.60;;
9449;SDS011;4763;48.370;10.874;2022-08-25T04:56:25;15.40;;;7.97;;
9449;SDS011;4763;48.370;10.874;2022-08-25T04:58:53;11.57;;;6.70;;
9449;SDS011;4763;48.370;10.874;2022-08-25T05:01:23;10.27;;;7.23;;
9449;SDS011;4763;48.370;10.874;2022-08-25T05:03:52;9.23;;;6.57;;
9449;SDS011;4763;48.370;10.874;2022-08-25T05:06:20;8.23;;;6.47;;
9449;SDS011;4763;48.370;10.874;2022-08-25T05:08:48;8.37;;;5.97;;
9449;SDS011;4763;48.370;10.874;2022-08-25T05:11:15;10.37;;;7.20;;
9449;SDS011;4763;48.370;10.874;2022-08-25T05:13:43;8.47;;;6.50;;
9449;SDS011;4763;48.370;10.874;2022-08-25T05:16:11;10.27;;;7.53;;
9449;SDS011;4763;48.370;10.874;2022-08-25T05:18:40;9.30;;;6.73;;
9449;SDS011;4763;48.370;10.874;2022-08-25T05:21:09;8.87;;;6.50;;
9449;SDS011;4763;48.370;10.874;2022-08-25T05:23:38;9.90;;;6.77;;
9449;SDS011;4763;48.370;10.874;2022-08-25T05:26:06;9.13;;;6.47;;
9449;SDS011;4763;48.370;10.874;2022-08-25T05:28:34;8.83;;;6.63;;
9449;SDS011;4763;48.370;10.874;2022-08-25T05:31:03;12.80;;;7.83;;
9449;SDS011;4763;48.370;10.874;2022-08-25T05:33:30;9.43;;;6.80;;
9449;SDS011;4763;48.370;10.874;2022-08-25T05:35:58;9.90;;;7.07;;
9449;SDS011;4763;48.370;10.874;2022-08-25T05:38:25;12.10;;;6.40;;
9449;SDS011;4763;48.370;10.874;2022-08-25T05:40:55;9.80;;;7.23;;
9449;SDS011;4763;48.370;10.874;2022-08-25T05:43:22;12.90;;;7.93;;
9449;SDS011;4763;48.370;10.874;2022-08-25T05:45:52;10.37;;;7.00;;
9449;SDS011;4763;48.370;10.874;2022-08-25T05:48:18;15.97;;;6.27;;
9449;SDS011;4763;48.370;10.874;2022-08-25T05:50:49;8.83;;;5.97;;
9449;SDS011;4763;48.370;10.874;2022-08-25T05:53:18;9.40;;;6.60;;
9449;SDS011;4763;48.370;10.874;2022-08-25T05:55:45;9.47;;;6.97;;
9449;SDS011;4763;48.370;10.874;2022-08-25T05:58:12;9.63;;;6.67;;
9449;SDS011;4763;48.370;10.874;2022-08-25T06:00:39;10.60;;;7.10;;
9449;SDS011;4763;48.370;10.874;2022-08-25T06:03:06;11.00;;;6.97;;
9449;SDS011;4763;48.370;10.874;2022-08-25T06:05:32;8.83;;;6.77;;
9449;SDS011;4763;48.370;10.874;2022-08-25T06:07:59;12.13;;;7.50;;
9449;SDS011;4763;48.370;10.874;2022-08-25T06:10:27;9.87;;;7.13;;
9449;SDS011;4763;48.370;10.874;2022-08-25T06:12:54;8.03;;;6.07;;
9449;SDS011;4763;48.370;10.874;2022-08-25T06:15:22;8.87;;;6.50;;
9449;SDS011;4763;48.370;10.874;2022-08-25T06:17:50;11.87;;;7.03;;
9449;SDS011;4763;48.370;10.874;2022-08-25T06:20:22;11.77;;;5.93;;
9449;SDS011;4763;48.370;10.874;2022-08-25T06:22:50;11.63;;;6.60;;
9449;SDS011;4763;48.370;10.874;2022-08-25T06:25:19;8.57;;;6.13;;
9449;SDS011;4763;48.370;10.874;2022-08-25T06:27:48;9.20;;;6.33;;
9449;SDS011;4763;48.370;10.874;2022-08-25T06:30:17;9.63;;;6.43;;
9449;SDS011;4763;48.370;10.874;2022-08-25T06:32:45;10.93;;;6.80;;
9449;SDS011;4763;48.370;10.874;2022-08-25T06:35:14;9.07;;;6.00;;
9449;SDS011;4763;48.370;10.874;2022-08-25T06:37:43;9.97;;;6.67;;
9449;SDS011;4763;48.370;10.874;2022-08-25T06:40:10;8.93;;;6.13;;
9449;SDS011;4763;48.370;10.874;2022-08-25T06:42:38;10.10;;;6.23;;
9449;SDS011;4763;48.370;10.874;2022-08-25T06:45:07;10.80;;;6.40;;
9449;SDS011;4763;48.370;10.874;2022-08-25T06:47:34;12.97;;;7.03;;
9449;SDS011;4763;48.370;10.874;2022-08-25T06:50:01;8.30;;;6.13;;
9449;SDS011;4763;48.370;10.874;2022-08-25T06:52:29;9.20;;;6.07;;
9449;SDS011;4763;48.370;10.874;2022-08-25T06:54:58;10.30;;;6.33;;
9449;SDS011;4763;48.370;10.874;2022-08-25T06:57:25;10.07;;;7.17;;
9449;SDS011;4763;48.370;10.874;2022-08-25T06:59:52;8.47;;;5.97;;
9449;SDS011;4763;48.370;10.874;2022-08-25T07:02:20;8.57;;;6.30;;
9449;SDS011;4763;48.370;10.874;2022-08-25T07:04:46;10.47;;;6.03;;
9449;SDS011;4763;48.370;10.874;2022-08-25T07:07:13;9.83;;;6.80;;
9449;SDS011;4763;48.370;10.874;2022-08-25T07:09:40;8.83;;;6.27;;
9449;SDS011;4763;48.370;10.874;2022-08-25T07:12:07;9.83;;;6.40;;
9449;SDS011;4763;48.370;10.874;2022-08-25T07:14:34;8.90;;;5.57;;
9449;SDS011;4763;48.370;10.874;2022-08-25T07:17:01;10.33;;;6.07;;
9449;SDS011;4763;48.370;10.874;2022-08-25T07:19:29;8.07;;;6.17;;
9449;SDS011;4763;48.370;10.874;2022-08-25T07:21:56;7.47;;;5.53;;
9449;SDS011;4763;48.370;10.874;2022-08-25T07:24:23;11.43;;;6.10;;
9449;SDS011;4763;48.370;10.874;2022-08-25T07:26:50;9.37;;;5.30;;
9449;SDS011;4763;48.370;10.874;2022-08-25T07:29:19;9.00;;;5.30;;
9449;SDS011;4763;48.370;10.874;2022-08-25T07:31:47;9.37;;;5.73;;
9449;SDS011;4763;48.370;10.874;2022-08-25T07:34:14;8.00;;;5.93;;
9449;SDS011;4763;48.370;10.874;2022-08-25T07:37:00;6.68;;;5.25;;
9449;SDS011;4763;48.370;10.874;2022-08-25T07:39:28;7.00;;;5.80;;
9449;SDS011;4763;48.370;10.874;2022-08-25T07:41:55;8.43;;;5.50;;
9449;SDS011;4763;48.370;10.874;2022-08-25T07:44:22;7.77;;;5.50;;
9449;SDS011;4763;48.370;10.874;2022-08-25T07:46:49;7.65;;;5.45;;
9449;SDS011;4763;48.370;10.874;2022-08-25T07:49:17;11.50;;;5.20;;
9449;SDS011;4763;48.370;10.874;2022-08-25T07:51:44;6.53;;;4.95;;
9449;SDS011;4763;48.370;10.874;2022-08-25T07:54:13;8.13;;;5.28;;
9449;SDS011;4763;48.370;10.874;2022-08-25T07:56:40;8.80;;;4.85;;
9449;SDS011;4763;48.370;10.874;2022-08-25T07:59:08;8.20;;;4.50;;
9449;SDS011;4763;48.370;10.874;2022-08-25T08:01:35;7.88;;;5.05;;
9449;SDS011;4763;48.370;10.874;2022-08-25T08:04:02;6.82;;;5.03;;
9449;SDS011;4763;48.370;10.874;2022-08-25T08:06:29;5.32;;;4.43;;
9449;SDS011;4763;48.370;10.874;2022-08-25T08:08:56;5.90;;;4.65;;
9449;SDS011;4763;48.370;10.874;2022-08-25T08:11:27;5.97;;;4.13;;
9449;SDS011;4763;48.370;10.874;2022-08-25T08:13:55;6.95;;;4.50;;
9449;SDS011;4763;48.370;10.874;2022-08-25T08:16:23;6.00;;;4.40;;
9449;SDS011;4763;48.370;10.874;2022-08-25T08:18:53;7.97;;;4.28;;
9449;SDS011;4763;48.370;10.874;2022-08-25T08:21:21;7.13;;;4.78;;
9449;SDS011;4763;48.370;10.874;2022-08-25T08:23:50;4.93;;;4.00;;
9449;SDS011;4763;48.370;10.874;2022-08-25T08:26:18;7.15;;;4.55;;
9449;SDS011;4763;48.370;10.874;2022-08-25T08:28:46;6.18;;;4.38;;
9449;SDS011;4763;48.370;10.874;2022-08-25T08:31:13;5.35;;;3.85;;
9449;SDS011;4763;48.370;10.874;2022-08-25T08:33:43;6.68;;;3.88;;
9449;SDS011;4763;48.370;10.874;2022-08-25T08:36:10;6.10;;;3.65;;
9449;SDS011;4763;48.370;10.874;2022-08-25T08:38:38;5.75;;;3.50;;
9449;SDS011;4763;48.370;10.874;2022-08-25T08:41:09;4.55;;;3.92;;
9449;SDS011;4763;48.370;10.874;2022-08-25T08:44:02;5.35;;;3.58;;
9449;SDS011;4763;48.370;10.874;2022-08-25T08:46:35;5.70;;;3.30;;
9449;SDS011;4763;48.370;10.874;2022-08-25T08:49:13;4.45;;;3.05;;
9449;SDS011;4763;48.370;10.874;2022-08-25T08:51:49;4.38;;;3.05;;
9449;SDS011;4763;48.370;10.874;2022-08-25T08:54:21;5.47;;;3.30;;
9449;SDS011;4763;48.370;10.874;2022-08-25T08:56:52;6.45;;;3.65;;
9449;SDS011;4763;48.370;10.874;2022-08-25T08:59:28;4.78;;;3.55;;
9449;SDS011;4763;48.370;10.874;2022-08-25T09:01:59;3.13;;;2.83;;
9449;SDS011;4763;48.370;10.874;2022-08-25T09:04:32;6.20;;;3.28;;
9449;SDS011;4763;48.370;10.874;2022-08-25T09:07:03;4.22;;;2.90;;
9449;SDS011;4763;48.370;10.874;2022-08-25T09:09:35;4.82;;;3.17;;
9449;SDS011;4763;48.370;10.874;2022-08-25T09:12:07;4.35;;;3.03;;
9449;SDS011;4763;48.370;10.874;2022-08-25T09:14:44;6.97;;;3.45;;
9449;SDS011;4763;48.370;10.874;2022-08-25T09:17:19;9.75;;;3.58;;
9449;SDS011;4763;48.370;10.874;2022-08-25T09:20:02;4.22;;;3.17;;
9449;SDS011;4763;48.370;10.874;2022-08-25T09:22:47;4.18;;;3.33;;
9449;SDS011;4763;48.370;10.874;2022-08-25T09:25:21;4.60;;;3.35;;
9449;SDS011;4763;48.370;10.874;2022-08-25T09:27:57;3.92;;;3.53;;
9449;SDS011;4763;48.370;10.874;2022-08-25T09:30:35;4.43;;;2.88;;
9449;SDS011;4763;48.370;10.874;2022-08-25T09:33:10;4.60;;;3.08;;
9449;SDS011;4763;48.370;10.874;2022-08-25T09:35:40;6.20;;;3.20;;
9449;SDS011;4763;48.370;10.874;2022-08-25T09:38:09;4.03;;;3.10;;
9449;SDS011;4763;48.370;10.874;2022-08-25T09:40:38;6.97;;;3.38;;
9449;SDS011;4763;48.370;10.874;2022-08-25T09:43:09;4.97;;;3.10;;
9449;SDS011;4763;48.370;10.874;2022-08-25T09:45:47;4.32;;;3.10;;
9449;SDS011;4763;48.370;10.874;2022-08-25T09:48:19;3.92;;;3.05;;
9449;SDS011;4763;48.370;10.874;2022-08-25T09:50:48;3.97;;;3.05;;
9449;SDS011;4763;48.370;10.874;2022-08-25T09:53:16;6.53;;;2.88;;
9449;SDS011;4763;48.370;10.874;2022-08-25T09:55:45;3.67;;;2.90;;
9449;SDS011;4763;48.370;10.874;2022-08-25T09:58:20;4.57;;;2.95;;
9449;SDS011;4763;48.370;10.874;2022-08-25T10:06:31;4.95;;;2.83;;
9449;SDS011;4763;48.370;10.874;2022-08-25T10:09:02;3.05;;;2.75;;
9449;SDS011;4763;48.370;10.874;2022-08-25T10:11:35;2.90;;;2.55;;
9449;SDS011;4763;48.370;10.874;2022-08-25T10:14:14;5.63;;;2.70;;
9449;SDS011;4763;48.370;10.874;2022-08-25T10:16:45;2.47;;;2.28;;
9449;SDS011;4763;48.370;10.874;2022-08-25T10:19:15;3.60;;;2.70;;
9449;SDS011;4763;48.370;10.874;2022-08-25T10:22:00;5.43;;;3.20;;
9449;SDS011;4763;48.370;10.874;2022-08-25T10:24:29;4.38;;;2.70;;
9449;SDS011;4763;48.370;10.874;2022-08-25T10:26:57;5.43;;;2.50;;
9449;SDS011;4763;48.370;10.874;2022-08-25T10:29:31;5.63;;;2.95;;
9449;SDS011;4763;48.370;10.874;2022-08-25T10:32:11;3.55;;;2.83;;
9449;SDS011;4763;48.370;10.874;2022-08-25T10:34:44;4.68;;;3.13;;
9449;SDS011;4763;48.370;10.874;2022-08-25T10:37:16;3.30;;;2.63;;
9449;SDS011;4763;48.370;10.874;2022-08-25T10:39:53;4.50;;;3.00;;
9449;SDS011;4763;48.370;10.874;2022-08-25T10:42:31;2.95;;;2.65;;
9449;SDS011;4763;48.370;10.874;2022-08-25T10:45:09;4.15;;;2.97;;
9449;SDS011;4763;48.370;10.874;2022-08-25T10:50:51;3.97;;;2.70;;
9449;SDS011;4763;48.370;10.874;2022-08-25T10:53:23;3.88;;;2.92;;
9449;SDS011;4763;48.370;10.874;2022-08-25T10:56:02;4.38;;;3.05;;
9449;SDS011;4763;48.370;10.874;2022-08-25T10:58:40;3.67;;;2.97;;
9449;SDS011;4763;48.370;10.874;2022-08-25T11:01:30;4.22;;;3.35;;
9449;SDS011;4763;48.370;10.874;2022-08-25T11:04:06;5.07;;;3.83;;
9449;SDS011;4763;48.370;10.874;2022-08-25T11:06:38;5.60;;;3.28;;
9449;SDS011;4763;48.370;10.874;2022-08-25T11:09:09;5.80;;;3.45;;
9449;SDS011;4763;48.370;10.874;2022-08-25T11:11:40;8.63;;;2.97;;
9449;SDS011;4763;48.370;10.874;2022-08-25T11:14:14;6.53;;;3.50;;
9449;SDS011;4763;48.370;10.874;2022-08-25T11:16:46;4.03;;;3.35;;
9449;SDS011;4763;48.370;10.874;2022-08-25T11:19:19;5.00;;;2.80;;
9449;SDS011;4763;48.370;10.874;2022-08-25T11:21:52;5.47;;;3.55;;
9449;SDS011;4763;48.370;10.874;2022-08-25T11:24:40;5.20;;;2.80;;
9449;SDS011;4763;48.370;10.874;2022-08-25T11:27:16;6.20;;;4.22;;
9449;SDS011;4763;48.370;10.874;2022-08-25T11:29:51;3.92;;;3.20;;
9449;SDS011;4763;48.370;10.874;2022-08-25T11:32:23;4.97;;;3.58;;
9449;SDS011;4763;48.370;10.874;2022-08-25T11:34:52;4.13;;;3.42;;
9449;SDS011;4763;48.370;10.874;2022-08-25T11:37:20;4.47;;;3.45;;
9449;SDS011;4763;48.370;10.874;2022-08-25T11:43:00;4.43;;;3.70;;
9449;SDS011;4763;48.370;10.874;2022-08-25T11:48:36;4.70;;;3.97;;
9449;SDS011;4763;48.370;10.874;2022-08-25T11:51:11;6.60;;;4.47;;
9449;SDS011;4763;48.370;10.874;2022-08-25T11:54:02;5.15;;;3.78;;
9449;SDS011;4763;48.370;10.874;2022-08-25T11:56:50;4.38;;;3.78;;
9449;SDS011;4763;48.370;10.874;2022-08-25T12:02:33;5.55;;;3.25;;
9449;SDS011;4763;48.370;10.874;2022-08-25T12:05:04;4.97;;;3.33;;
9449;SDS011;4763;48.370;10.874;2022-08-25T12:10:58;6.30;;;3.58;;
9449;SDS011;4763;48.370;10.874;2022-08-25T12:13:37;5.72;;;3.42;;
9449;SDS011;4763;48.370;10.874;2022-08-25T12:16:30;3.85;;;3.13;;
9449;SDS011;4763;48.370;10.874;2022-08-25T12:19:22;4.70;;;3.50;;
9449;SDS011;4763;48.370;10.874;2022-08-25T12:21:51;5.82;;;3.90;;
9449;SDS011;4763;48.370;10.874;2022-08-25T12:24:22;4.90;;;3.55;;
9449;SDS011;4763;48.370;10.874;2022-08-25T12:27:10;3.70;;;3.38;;
9449;SDS011;4763;48.370;10.874;2022-08-25T12:29:47;4.75;;;3.80;;
9449;SDS011;4763;48.370;10.874;2022-08-25T12:32:24;4.03;;;3.50;;
9449;SDS011;4763;48.370;10.874;2022-08-25T12:35:12;6.50;;;3.20;;
9449;SDS011;4763;48.370;10.874;2022-08-25T12:37:52;3.80;;;3.08;;
9449;SDS011;4763;48.370;10.874;2022-08-25T12:40:25;5.95;;;3.50;;
9449;SDS011;4763;48.370;10.874;2022-08-25T12:42:59;4.88;;;3.92;;
9449;SDS011;4763;48.370;10.874;2022-08-25T12:45:32;5.05;;;3.70;;
9449;SDS011;4763;48.370;10.874;2022-08-25T12:51:09;8.93;;;5.13;;
9449;SDS011;4763;48.370;10.874;2022-08-25T12:53:43;7.55;;;3.88;;
9449;SDS011;4763;48.370;10.874;2022-08-25T12:56:23;7.25;;;3.92;;
9449;SDS011;4763;48.370;10.874;2022-08-25T12:58:54;6.35;;;4.68;;
9449;SDS011;4763;48.370;10.874;2022-08-25T13:01:39;8.20;;;4.90;;
9449;SDS011;4763;48.370;10.874;2022-08-25T13:04:25;4.50;;;3.35;;
9449;SDS011;4763;48.370;10.874;2022-08-25T13:07:17;8.98;;;5.00;;
9449;SDS011;4763;48.370;10.874;2022-08-25T13:12:54;5.72;;;3.50;;
9449;SDS011;4763;48.370;10.874;2022-08-25T13:15:27;15.40;;;3.75;;
9449;SDS011;4763;48.370;10.874;2022-08-25T13:18:17;3.88;;;3.20;;
9449;SDS011;4763;48.370;10.874;2022-08-25T13:20:47;7.35;;;3.58;;
9449;SDS011;4763;48.370;10.874;2022-08-25T13:23:19;6.80;;;3.55;;
9449;SDS011;4763;48.370;10.874;2022-08-25T13:25:51;8.65;;;4.75;;
9449;SDS011;4763;48.370;10.874;2022-08-25T13:28:23;6.00;;;3.65;;
9449;SDS011;4763;48.370;10.874;2022-08-25T13:30:58;5.25;;;3.78;;
9449;SDS011;4763;48.370;10.874;2022-08-25T13:33:27;5.10;;;3.83;;
9449;SDS011;4763;48.370;10.874;2022-08-25T13:35:55;8.77;;;3.60;;
9449;SDS011;4763;48.370;10.874;2022-08-25T13:38:40;12.23;;;4.47;;
9449;SDS011;4763;48.370;10.874;2022-08-25T13:41:08;4.35;;;3.13;;
9449;SDS011;4763;48.370;10.874;2022-08-25T13:43:37;4.97;;;3.75;;
9449;SDS011;4763;48.370;10.874;2022-08-25T13:46:04;3.75;;;3.17;;
9449;SDS011;4763;48.370;10.874;2022-08-25T13:48:32;4.10;;;2.65;;
9449;SDS011;4763;48.370;10.874;2022-08-25T13:51:05;3.53;;;3.22;;
9449;SDS011;4763;48.370;10.874;2022-08-25T13:53:35;5.25;;;3.35;;
9449;SDS011;4763;48.370;10.874;2022-08-25T13:56:03;6.07;;;3.45;;
9449;SDS011;4763;48.370;10.874;2022-08-25T13:58:31;7.68;;;3.58;;
9449;SDS011;4763;48.370;10.874;2022-08-25T14:01:04;14.73;;;3.88;;
9449;SDS011;4763;48.370;10.874;2022-08-25T14:03:34;5.28;;;4.50;;
9449;SDS011;4763;48.370;10.874;2022-08-25T14:06:05;4.13;;;3.22;;
9449;SDS011;4763;48.370;10.874;2022-08-25T14:08:35;5.32;;;3.95;;
9449;SDS011;4763;48.370;10.874;2022-08-25T14:11:07;5.85;;;3.72;;
9449;SDS011;4763;48.370;10.874;2022-08-25T14:13:36;3.92;;;3.13;;
9449;SDS011;4763;48.370;10.874;2022-08-25T14:16:10;5.03;;;4.00;;
9449;SDS011;4763;48.370;10.874;2022-08-25T14:18:44;15.30;;;4.10;;
9449;SDS011;4763;48.370;10.874;2022-08-25T14:21:13;11.02;;;4.00;;
9449;SDS011;4763;48.370;10.874;2022-08-25T14:23:41;11.82;;;4.25;;
9449;SDS011;4763;48.370;10.874;2022-08-25T14:26:09;7.35;;;4.25;;
9449;SDS011;4763;48.370;10.874;2022-08-25T14:28:35;5.25;;;3.78;;
9449;SDS011;4763;48.370;10.874;2022-08-25T14:31:05;6.78;;;3.97;;
9449;SDS011;4763;48.370;10.874;2022-08-25T14:33:37;3.80;;;3.25;;
9449;SDS011;4763;48.370;10.874;2022-08-25T14:36:06;4.35;;;2.60;;
9449;SDS011;4763;48.370;10.874;2022-08-25T14:38:33;6.50;;;3.45;;
9449;SDS011;4763;48.370;10.874;2022-08-25T14:41:03;4.03;;;3.35;;
9449;SDS011;4763;48.370;10.874;2022-08-25T14:43:30;6.78;;;4.05;;
9449;SDS011;4763;48.370;10.874;2022-08-25T14:45:57;8.27;;;4.78;;
9449;SDS011;4763;48.370;10.874;2022-08-25T14:48:26;8.98;;;3.80;;
9449;SDS011;4763;48.370;10.874;2022-08-25T14:50:57;5.22;;;3.13;;
9449;SDS011;4763;48.370;10.874;2022-08-25T14:53:25;6.32;;;3.88;;
9449;SDS011;4763;48.370;10.874;2022-08-25T14:55:52;17.67;;;4.85;;
9449;SDS011;4763;48.370;10.874;2022-08-25T14:58:19;8.38;;;3.63;;
9449;SDS011;4763;48.370;10.874;2022-08-25T15:00:46;8.63;;;4.55;;
9449;SDS011;4763;48.370;10.874;2022-08-25T15:03:15;8.05;;;3.50;;
9449;SDS011;4763;48.370;10.874;2022-08-25T15:05:47;3.97;;;3.28;;
9449;SDS011;4763;48.370;10.874;2022-08-25T15:08:15;6.13;;;4.10;;
9449;SDS011;4763;48.370;10.874;2022-08-25T15:11:00;11.05;;;3.88;;
9449;SDS011;4763;48.370;10.874;2022-08-25T15:13:27;7.40;;;4.32;;
9449;SDS011;4763;48.370;10.874;2022-08-25T15:15:54;10.43;;;4.40;;
9449;SDS011;4763;48.370;10.874;2022-08-25T15:18:21;7.78;;;3.63;;
9449;SDS011;4763;48.370;10.874;2022-08-25T15:20:48;4.53;;;3.58;;
9449;SDS011;4763;48.370;10.874;2022-08-25T15:23:16;6.80;;;3.60;;
9449;SDS011;4763;48.370;10.874;2022-08-25T15:25:43;6.80;;;3.50;;
9449;SDS011;4763;48.370;10.874;2022-08-25T15:28:12;7.07;;;3.85;;
9449;SDS011;4763;48.370;10.874;2022-08-25T15:30:40;11.25;;;4.18;;
9449;SDS011;4763;48.370;10.874;2022-08-25T15:33:07;6.75;;;3.45;;
9449;SDS011;4763;48.370;10.874;2022-08-25T15:35:34;10.55;;;3.50;;
9449;SDS011;4763;48.370;10.874;2022-08-25T15:38:01;5.93;;;2.83;;
9449;SDS011;4763;48.370;10.874;2022-08-25T15:40:30;4.28;;;3.03;;
9449;SDS011;4763;48.370;10.874;2022-08-25T15:42:57;4.50;;;3.13;;
9449;SDS011;4763;48.370;10.874;2022-08-25T15:45:23;5.38;;;3.30;;
9449;SDS011;4763;48.370;10.874;2022-08-25T15:47:50;5.95;;;2.78;;